createdAt,value
2017-10-23T00:00:35.682Z,9.12
2017-10-23T00:01:46.144Z,9.09
2017-10-23T00:02:56.635Z,9.09
2017-10-23T00:04:07.096Z,9.12
2017-10-23T00:05:17.639Z,9.2
2017-10-23T00:06:28.105Z,9.19
2017-10-23T00:07:38.601Z,9.16
2017-10-23T00:08:49.071Z,9.22
2017-10-23T00:09:59.565Z,9.15
2017-10-23T00:11:10.024Z,9.11
2017-10-23T00:12:20.500Z,9.16
2017-10-23T00:13:30.959Z,9.12
2017-10-23T00:14:41.409Z,9.11
2017-10-23T00:15:51.885Z,9.15
2017-10-23T00:17:02.350Z,9.09
2017-10-23T00:18:12.823Z,9.02
2017-10-23T00:19:23.409Z,9.01
2017-10-23T00:20:33.871Z,9.04
2017-10-23T00:21:44.320Z,9.01
2017-10-23T00:22:54.788Z,8.97
2017-10-23T00:24:05.462Z,8.92
2017-10-23T00:25:15.927Z,8.9
2017-10-23T00:26:26.413Z,8.79
2017-10-23T00:27:36.861Z,8.8
2017-10-23T00:28:47.377Z,8.74
2017-10-23T00:29:57.809Z,8.77
2017-10-23T00:31:08.292Z,8.7
2017-10-23T00:32:18.728Z,8.68
2017-10-23T00:33:29.279Z,8.63
2017-10-23T00:34:39.797Z,8.53
2017-10-23T00:35:49.925Z,8.5
2017-10-23T00:37:00.472Z,8.53
2017-10-23T00:38:10.949Z,8.55
2017-10-23T00:39:21.441Z,8.53
2017-10-23T00:40:31.956Z,8.57
2017-10-23T00:41:42.448Z,8.55
2017-10-23T00:42:53.026Z,8.48
2017-10-23T00:44:03.549Z,8.43
2017-10-23T00:45:13.996Z,8.5
2017-10-23T00:46:24.445Z,8.43
2017-10-23T00:47:34.904Z,8.45
2017-10-23T00:48:45.642Z,8.34
2017-10-23T00:49:56.593Z,8.45
2017-10-23T00:51:06.696Z,8.43
2017-10-23T00:52:17.224Z,8.35
2017-10-23T00:53:27.872Z,8.4
2017-10-23T00:54:38.556Z,8.4
2017-10-23T00:55:48.710Z,8.39
2017-10-23T00:56:58.753Z,8.37
2017-10-23T00:58:08.830Z,8.31
2017-10-23T00:59:19.291Z,8.34
2017-10-23T01:00:29.804Z,8.37
2017-10-23T01:01:40.311Z,8.3
2017-10-23T01:02:50.772Z,8.34
2017-10-23T01:04:01.257Z,8.31
2017-10-23T01:05:11.282Z,8.23
2017-10-23T01:06:21.895Z,8.23
2017-10-23T01:07:32.620Z,8.17
2017-10-23T01:08:43.069Z,8.23
2017-10-23T01:09:53.595Z,8.2
2017-10-23T01:11:04.126Z,8.21
2017-10-23T01:12:14.566Z,8.13
2017-10-23T01:13:25.997Z,8.13
2017-10-23T01:14:36.438Z,8.13
2017-10-23T01:15:46.947Z,8.09
2017-10-23T01:16:57.439Z,8.09
2017-10-23T01:18:08.043Z,8.09
2017-10-23T01:19:18.645Z,8.06
2017-10-23T01:20:29.111Z,8.09
2017-10-23T01:21:39.604Z,8.07
2017-10-23T01:22:50.086Z,8.05
2017-10-23T01:24:00.565Z,8.03
2017-10-23T01:25:11.039Z,7.92
2017-10-23T01:26:21.545Z,7.91
2017-10-23T01:27:32.187Z,7.9
2017-10-23T01:28:42.638Z,7.94
2017-10-23T01:29:53.078Z,7.98
2017-10-23T01:31:03.727Z,7.91
2017-10-23T01:32:14.202Z,7.87
2017-10-23T01:33:24.340Z,7.94
2017-10-23T01:34:34.796Z,7.85
2017-10-23T01:35:45.247Z,7.8
2017-10-23T01:36:55.736Z,7.8
2017-10-23T01:38:06.436Z,7.84
2017-10-23T01:39:17.065Z,7.84
2017-10-23T01:40:27.594Z,7.88
2017-10-23T01:41:37.690Z,7.74
2017-10-23T01:42:48.130Z,7.88
2017-10-23T01:43:58.585Z,7.85
2017-10-23T01:45:09.254Z,7.8
2017-10-23T01:46:19.711Z,7.7
2017-10-23T01:47:30.217Z,7.82
2017-10-23T01:48:40.708Z,7.76
2017-10-23T01:49:51.283Z,7.76
2017-10-23T01:51:01.869Z,7.66
2017-10-23T01:52:12.304Z,7.77
2017-10-23T01:53:22.901Z,7.67
2017-10-23T01:54:33.358Z,7.72
2017-10-23T01:55:43.900Z,7.76
2017-10-23T01:56:54.339Z,7.8
2017-10-23T01:58:04.788Z,7.73
2017-10-23T01:59:15.246Z,7.74
2017-10-23T02:00:25.327Z,7.74
2017-10-23T02:01:35.805Z,7.82
2017-10-23T02:02:46.272Z,7.9
2017-10-23T02:03:56.732Z,7.84
2017-10-23T02:05:07.190Z,7.88
2017-10-23T02:06:17.647Z,7.94
2017-10-23T02:07:28.098Z,7.97
2017-10-23T02:08:38.620Z,7.98
2017-10-23T02:09:49.109Z,7.99
2017-10-23T02:10:59.785Z,8.07
2017-10-23T02:12:10.527Z,8.12
2017-10-23T02:13:20.662Z,8.16
2017-10-23T02:14:31.102Z,8.12
2017-10-23T02:15:41.564Z,8.2
2017-10-23T02:16:52.062Z,8.1
2017-10-23T02:18:02.561Z,8.27
2017-10-23T02:19:13.243Z,8.32
2017-10-23T02:20:23.733Z,8.34
2017-10-23T02:21:34.180Z,8.3
2017-10-23T02:22:44.732Z,8.42
2017-10-23T02:23:54.851Z,8.42
2017-10-23T02:25:05.325Z,8.46
2017-10-23T02:26:15.814Z,8.34
2017-10-23T02:27:26.505Z,8.52
2017-10-23T02:28:36.941Z,8.46
2017-10-23T02:29:47.443Z,8.52
2017-10-23T02:30:57.911Z,8.42
2017-10-23T02:34:40.739Z,8.58
2017-10-23T02:35:51.188Z,8.49
2017-10-23T02:37:01.650Z,8.58
2017-10-23T02:39:28.317Z,8.5
2017-10-23T02:40:38.813Z,8.57
2017-10-23T02:41:50.308Z,8.57
2017-10-23T02:43:00.747Z,8.55
2017-10-23T02:44:11.221Z,8.55
2017-10-23T02:45:21.691Z,8.64
2017-10-23T02:46:32.128Z,8.5
2017-10-23T02:47:42.332Z,8.63
2017-10-23T02:48:52.815Z,8.61
2017-10-23T02:50:03.317Z,8.45
2017-10-23T02:51:13.873Z,8.58
2017-10-23T02:52:24.359Z,8.55
2017-10-23T02:53:34.821Z,8.52
2017-10-23T02:54:45.294Z,8.53
2017-10-23T02:55:55.734Z,8.52
2017-10-23T02:57:06.185Z,8.67
2017-10-23T02:58:16.708Z,8.52
2017-10-23T02:59:27.147Z,8.61
2017-10-23T03:00:37.639Z,8.49
2017-10-23T03:01:48.077Z,8.5
2017-10-23T03:02:58.563Z,8.5
2017-10-23T03:04:09.280Z,8.49
2017-10-23T03:05:20.001Z,8.49
2017-10-23T03:06:30.480Z,8.55
2017-10-23T03:07:44.604Z,8.55
2017-10-23T03:08:55.171Z,8.52
2017-10-23T03:10:05.655Z,8.5
2017-10-23T03:11:16.160Z,8.42
2017-10-23T03:12:26.840Z,8.42
2017-10-23T03:13:37.306Z,8.34
2017-10-23T03:14:47.834Z,8.4
2017-10-23T03:15:58.319Z,8.31
2017-10-23T03:17:08.778Z,8.25
2017-10-23T03:18:19.231Z,8.27
2017-10-23T03:19:29.704Z,8.27
2017-10-23T03:20:40.184Z,8.24
2017-10-23T03:21:50.877Z,8.27
2017-10-23T03:23:01.349Z,8.3
2017-10-23T03:24:11.852Z,8.31
2017-10-23T03:25:22.287Z,8.13
2017-10-23T03:26:32.733Z,8.24
2017-10-23T03:27:43.199Z,8.17
2017-10-23T03:28:53.674Z,8.16
2017-10-23T03:30:04.138Z,8.2
2017-10-23T03:31:14.644Z,8.17
2017-10-23T03:32:25.096Z,8.12
2017-10-23T03:33:35.793Z,8.15
2017-10-23T03:34:46.285Z,8.2
2017-10-23T03:35:56.424Z,8.15
2017-10-23T03:37:06.889Z,8.21
2017-10-23T03:38:17.333Z,8.2
2017-10-23T03:39:27.774Z,8.15
2017-10-23T03:40:38.347Z,8.13
2017-10-23T03:41:48.802Z,8.16
2017-10-23T03:42:59.292Z,8.15
2017-10-23T03:44:09.759Z,8.15
2017-10-23T03:45:20.434Z,7.95
2017-10-23T03:46:30.553Z,8.1
2017-10-23T03:47:41.026Z,8.03
2017-10-23T03:48:51.483Z,8.06
2017-10-23T03:50:02.049Z,8.07
2017-10-23T03:51:12.530Z,7.97
2017-10-23T03:52:22.972Z,8.02
2017-10-23T03:53:33.409Z,8.06
2017-10-23T03:54:43.869Z,7.94
2017-10-23T03:55:54.066Z,8.05
2017-10-23T03:57:04.185Z,8.07
2017-10-23T03:58:14.661Z,7.98
2017-10-23T03:59:25.093Z,8.12
2017-10-23T04:00:35.636Z,8.13
2017-10-23T04:01:45.729Z,8.12
2017-10-23T04:02:56.258Z,8.13
2017-10-23T04:04:06.785Z,8.2
2017-10-23T04:05:17.232Z,8.13
2017-10-23T04:06:27.371Z,8.15
2017-10-23T04:07:37.922Z,8.12
2017-10-23T04:08:48.422Z,8.17
2017-10-23T04:09:58.879Z,8.16
2017-10-23T04:11:09.338Z,8.17
2017-10-23T04:12:19.828Z,8.23
2017-10-23T04:13:30.330Z,8.12
2017-10-23T04:14:40.832Z,8.17
2017-10-23T04:15:51.257Z,8.21
2017-10-23T04:17:01.756Z,8.16
2017-10-23T04:18:12.306Z,8.13
2017-10-23T04:19:22.760Z,8.12
2017-10-23T04:20:33.373Z,8.1
2017-10-23T04:21:43.805Z,8.2
2017-10-23T04:22:53.957Z,8.16
2017-10-23T04:24:04.523Z,8.25
2017-10-23T04:25:14.689Z,8.28
2017-10-23T04:26:25.154Z,8.27
2017-10-23T04:27:35.293Z,8.31
2017-10-23T04:28:45.786Z,8.3
2017-10-23T04:29:56.222Z,8.32
2017-10-23T04:31:06.717Z,8.35
2017-10-23T04:32:17.573Z,8.32
2017-10-23T04:33:27.805Z,8.37
2017-10-23T04:34:38.284Z,8.31
2017-10-23T04:35:48.948Z,8.37
2017-10-23T04:36:59.424Z,8.34
2017-10-23T04:38:09.893Z,8.34
2017-10-23T04:39:20.365Z,8.35
2017-10-23T04:40:30.812Z,8.34
2017-10-23T04:41:40.872Z,8.32
2017-10-23T04:42:51.341Z,8.32
2017-10-23T04:44:01.788Z,8.37
2017-10-23T04:45:12.344Z,8.35
2017-10-23T04:46:22.820Z,8.34
2017-10-23T04:47:33.358Z,8.32
2017-10-23T04:48:43.793Z,8.31
2017-10-23T04:49:54.273Z,8.27
2017-10-23T04:51:04.499Z,8.25
2017-10-23T04:52:14.936Z,8.31
2017-10-23T04:53:25.506Z,8.28
2017-10-23T04:54:35.691Z,8.13
2017-10-23T04:55:46.246Z,8.31
2017-10-23T04:56:56.698Z,8.23
2017-10-23T04:58:07.306Z,8.35
2017-10-23T04:59:17.751Z,8.27
2017-10-23T05:00:27.912Z,8.28
2017-10-23T05:01:38.486Z,8.28
2017-10-23T05:02:48.952Z,8.37
2017-10-23T05:03:59.434Z,8.34
2017-10-23T05:05:09.862Z,8.32
2017-10-23T05:06:20.035Z,8.37
2017-10-23T05:07:30.536Z,8.39
2017-10-23T05:08:40.984Z,8.31
2017-10-23T05:09:51.670Z,8.31
2017-10-23T05:11:01.862Z,8.45
2017-10-23T05:12:12.596Z,8.43
2017-10-23T05:13:23.102Z,8.34
2017-10-23T05:14:33.584Z,8.35
2017-10-23T05:15:44.359Z,8.4
2017-10-23T05:16:54.483Z,8.43
2017-10-23T05:18:04.946Z,8.39
2017-10-23T05:19:15.403Z,8.35
2017-10-23T05:20:25.895Z,8.4
2017-10-23T05:21:36.457Z,8.32
2017-10-23T05:22:46.896Z,8.4
2017-10-23T05:23:56.913Z,8.48
2017-10-23T05:25:07.586Z,8.42
2017-10-23T05:26:18.029Z,8.39
2017-10-23T05:27:28.199Z,8.37
2017-10-23T05:28:38.640Z,8.42
2017-10-23T05:29:49.159Z,8.43
2017-10-23T05:30:59.627Z,8.4
2017-10-23T05:32:10.089Z,8.45
2017-10-23T05:33:20.584Z,8.4
2017-10-23T05:34:30.755Z,8.48
2017-10-23T05:35:41.204Z,8.48
2017-10-23T05:36:51.693Z,8.48
2017-10-23T05:38:02.249Z,8.53
2017-10-23T05:39:12.826Z,8.39
2017-10-23T05:40:23.292Z,8.45
2017-10-23T05:41:33.758Z,8.5
2017-10-23T05:42:44.426Z,8.49
2017-10-23T05:43:54.555Z,8.55
2017-10-23T05:45:05.006Z,8.55
2017-10-23T05:46:15.446Z,8.55
2017-10-23T05:47:25.593Z,8.5
2017-10-23T05:48:36.134Z,8.45
2017-10-23T05:49:46.643Z,8.45
2017-10-23T05:50:57.328Z,8.45
2017-10-23T05:52:07.797Z,8.43
2017-10-23T05:53:18.270Z,8.46
2017-10-23T05:54:28.749Z,8.45
2017-10-23T05:55:39.229Z,8.35
2017-10-23T05:56:49.699Z,8.37
2017-10-23T05:58:00.146Z,8.39
2017-10-23T05:59:10.600Z,8.4
2017-10-23T06:00:21.072Z,8.37
2017-10-23T06:01:31.524Z,8.39
2017-10-23T06:02:42.059Z,8.39
2017-10-23T06:03:52.540Z,8.39
2017-10-23T06:05:03.024Z,8.39
2017-10-23T06:06:13.485Z,8.32
2017-10-23T06:07:24.071Z,8.34
2017-10-23T06:08:34.756Z,8.34
2017-10-23T06:09:45.208Z,8.32
2017-10-23T06:10:55.349Z,8.35
2017-10-23T06:12:05.967Z,8.39
2017-10-23T06:13:16.540Z,8.35
2017-10-23T06:14:26.984Z,8.4
2017-10-23T06:15:37.666Z,8.37
2017-10-23T06:16:48.345Z,8.39
2017-10-23T06:17:58.800Z,8.34
2017-10-23T06:19:09.277Z,8.34
2017-10-23T06:20:19.779Z,8.39
2017-10-23T06:21:30.276Z,8.4
2017-10-23T06:22:40.739Z,8.39
2017-10-23T06:23:51.195Z,8.34
2017-10-23T06:25:01.671Z,8.35
2017-10-23T06:26:12.205Z,8.35
2017-10-23T06:27:23.088Z,8.35
2017-10-23T06:28:33.590Z,8.46
2017-10-23T06:29:44.117Z,8.37
2017-10-23T06:30:54.704Z,8.3
2017-10-23T06:32:05.173Z,8.28
2017-10-23T06:33:16.636Z,8.31
2017-10-23T06:34:27.091Z,8.31
2017-10-23T06:35:37.744Z,8.28
2017-10-23T06:36:48.270Z,8.32
2017-10-23T06:37:58.702Z,8.31
2017-10-23T06:39:08.743Z,8.3
2017-10-23T06:40:19.192Z,8.28
2017-10-23T06:41:29.622Z,8.23
2017-10-23T06:42:39.904Z,8.31
2017-10-23T06:43:50.341Z,8.25
2017-10-23T06:45:00.823Z,8.31
2017-10-23T06:46:11.281Z,8.28
2017-10-23T06:47:21.754Z,8.28
2017-10-23T06:48:32.192Z,8.25
2017-10-23T06:49:42.686Z,8.27
2017-10-23T06:50:53.205Z,8.13
2017-10-23T06:52:03.652Z,8.21
2017-10-23T06:53:13.826Z,8.23
2017-10-23T06:54:24.519Z,8.16
2017-10-23T06:55:35.027Z,8.16
2017-10-23T06:56:45.500Z,8.1
2017-10-23T06:57:56.142Z,8.23
2017-10-23T06:59:06.580Z,8.17
2017-10-23T07:00:17.099Z,8.23
2017-10-23T07:01:27.237Z,8.09
2017-10-23T07:02:37.362Z,8.24
2017-10-23T07:03:47.845Z,8.12
2017-10-23T07:04:58.548Z,8.24
2017-10-23T07:06:09.111Z,8.15
2017-10-23T07:07:19.598Z,8.28
2017-10-23T07:08:30.052Z,8.27
2017-10-23T07:09:40.553Z,8.2
2017-10-23T07:10:51.005Z,8.27
2017-10-23T07:12:01.473Z,8.25
2017-10-23T07:13:11.967Z,8.31
2017-10-23T07:14:22.416Z,8.28
2017-10-23T07:15:32.939Z,8.31
2017-10-23T07:16:43.386Z,8.31
2017-10-23T07:17:53.902Z,8.34
2017-10-23T07:19:04.343Z,8.35
2017-10-23T07:20:14.872Z,8.43
2017-10-23T07:21:25.322Z,8.37
2017-10-23T07:22:35.517Z,8.48
2017-10-23T07:23:45.723Z,8.48
2017-10-23T07:24:56.538Z,8.49
2017-10-23T07:26:06.985Z,8.45
2017-10-23T07:27:17.483Z,8.43
2017-10-23T07:28:27.542Z,8.55
2017-10-23T07:29:38.095Z,8.6
2017-10-23T07:30:48.223Z,8.52
2017-10-23T07:31:58.696Z,8.55
2017-10-23T07:33:09.175Z,8.52
2017-10-23T07:34:19.630Z,8.58
2017-10-23T07:35:30.158Z,8.64
2017-10-23T07:36:40.723Z,8.6
2017-10-23T07:37:51.214Z,8.66
2017-10-23T07:39:01.739Z,8.75
2017-10-23T07:40:12.198Z,8.68
2017-10-23T07:41:22.683Z,8.64
2017-10-23T07:42:33.151Z,8.7
2017-10-23T07:43:43.708Z,8.77
2017-10-23T07:44:54.160Z,8.66
2017-10-23T07:46:04.416Z,8.7
2017-10-23T07:47:14.895Z,8.7
2017-10-23T07:48:25.331Z,8.83
2017-10-23T07:49:35.521Z,8.8
2017-10-23T07:50:46.067Z,8.77
2017-10-23T07:51:56.639Z,8.9
2017-10-23T07:53:07.127Z,8.87
2017-10-23T07:54:17.699Z,8.74
2017-10-23T07:55:28.155Z,8.93
2017-10-23T07:56:38.630Z,8.97
2017-10-23T07:57:49.136Z,9
2017-10-23T07:58:59.613Z,8.97
2017-10-23T08:00:10.103Z,8.93
2017-10-23T08:01:20.787Z,8.9
2017-10-23T08:02:31.220Z,8.98
2017-10-23T08:03:41.692Z,8.98
2017-10-23T08:04:52.127Z,9.01
2017-10-23T08:06:02.695Z,8.98
2017-10-23T08:07:13.160Z,9.11
2017-10-23T08:08:23.631Z,9.16
2017-10-23T08:09:34.065Z,9.17
2017-10-23T08:10:44.535Z,9.15
2017-10-23T08:11:55.014Z,9.29
2017-10-23T08:13:05.482Z,9.19
2017-10-23T08:14:15.940Z,9.25
2017-10-23T08:15:26.455Z,9.22
2017-10-23T08:16:37.186Z,9.16
2017-10-23T08:17:47.649Z,9.22
2017-10-23T08:18:58.275Z,9.25
2017-10-23T08:20:08.741Z,9.22
2017-10-23T08:21:19.239Z,9.22
2017-10-23T08:22:29.717Z,9.27
2017-10-23T08:23:40.164Z,9.25
2017-10-23T08:24:50.619Z,9.3
2017-10-23T08:26:01.134Z,9.34
2017-10-23T08:27:11.758Z,9.26
2017-10-23T08:28:22.233Z,9.33
2017-10-23T08:29:32.722Z,9.27
2017-10-23T08:30:42.863Z,9.35
2017-10-23T08:31:53.559Z,9.35
2017-10-23T08:33:04.055Z,9.34
2017-10-23T08:34:14.537Z,9.33
2017-10-23T08:35:25.023Z,9.38
2017-10-23T08:36:35.487Z,9.42
2017-10-23T08:37:45.964Z,9.45
2017-10-23T08:38:56.438Z,9.37
2017-10-23T08:40:06.899Z,9.55
2017-10-23T08:41:17.382Z,9.7
2017-10-23T08:42:27.846Z,9.75
2017-10-23T08:43:38.312Z,9.96
2017-10-23T08:44:48.790Z,10.19
2017-10-23T08:45:59.255Z,10.11
2017-10-23T08:47:09.313Z,10.19
2017-10-23T08:48:19.757Z,10.24
2017-10-23T08:49:30.276Z,10.32
2017-10-23T08:50:40.887Z,10.45
2017-10-23T08:51:51.576Z,10.55
2017-10-23T08:53:02.024Z,10.73
2017-10-23T08:54:12.549Z,10.72
2017-10-23T08:55:22.993Z,10.79
2017-10-23T08:56:33.579Z,10.88
2017-10-23T08:57:44.016Z,10.87
2017-10-23T08:58:54.580Z,10.83
2017-10-23T09:00:05.133Z,10.83
2017-10-23T09:01:15.597Z,10.7
2017-10-23T09:02:25.812Z,10.69
2017-10-23T09:03:36.319Z,10.59
2017-10-23T09:04:46.470Z,10.58
2017-10-23T09:05:56.948Z,10.61
2017-10-23T09:07:07.448Z,10.48
2017-10-23T09:08:18.140Z,10.51
2017-10-23T09:09:28.714Z,10.5
2017-10-23T09:10:39.237Z,10.4
2017-10-23T09:11:49.686Z,10.45
2017-10-23T09:13:00.138Z,10.45
2017-10-23T09:14:10.609Z,10.55
2017-10-23T09:15:21.204Z,10.7
2017-10-23T09:16:31.751Z,10.75
2017-10-23T09:17:42.208Z,10.9
2017-10-23T09:18:52.802Z,10.98
2017-10-23T09:20:03.266Z,11.34
2017-10-23T09:21:13.734Z,11.71
2017-10-23T09:22:24.224Z,11.98
2017-10-23T09:23:34.938Z,12.24
2017-10-23T09:24:45.420Z,12.26
2017-10-23T09:25:55.920Z,12.23
2017-10-23T09:27:06.477Z,12.2
2017-10-23T09:28:16.992Z,12.15
2017-10-23T09:29:27.552Z,11.91
2017-10-23T09:30:38.010Z,11.89
2017-10-23T09:31:48.512Z,11.69
2017-10-23T09:32:59.087Z,11.61
2017-10-23T09:34:09.542Z,11.49
2017-10-23T09:35:20.006Z,11.48
2017-10-23T09:36:30.493Z,11.42
2017-10-23T09:37:40.954Z,11.33
2017-10-23T09:38:51.501Z,11.33
2017-10-23T09:40:01.987Z,11.34
2017-10-23T09:41:12.469Z,11.16
2017-10-23T09:42:23.063Z,11.21
2017-10-23T09:43:33.624Z,11.17
2017-10-23T09:44:44.114Z,11.16
2017-10-23T09:45:54.607Z,11
2017-10-23T09:47:05.063Z,10.98
2017-10-23T09:48:15.548Z,10.95
2017-10-23T09:49:26.031Z,10.87
2017-10-23T09:50:36.520Z,10.83
2017-10-23T09:51:46.996Z,10.87
2017-10-23T09:52:57.468Z,10.84
2017-10-23T09:54:07.964Z,10.8
2017-10-23T09:55:18.468Z,10.73
2017-10-23T09:56:29.088Z,10.72
2017-10-23T09:57:39.597Z,10.7
2017-10-23T09:58:50.046Z,10.7
2017-10-23T10:00:00.506Z,10.72
2017-10-23T10:01:11.027Z,10.67
2017-10-23T10:02:21.703Z,10.61
2017-10-23T10:03:32.178Z,10.54
2017-10-23T10:04:42.774Z,10.55
2017-10-23T10:05:53.268Z,10.51
2017-10-23T10:07:03.738Z,10.58
2017-10-23T10:08:14.233Z,10.55
2017-10-23T10:09:24.727Z,10.57
2017-10-23T10:10:35.274Z,10.55
2017-10-23T10:11:45.822Z,10.61
2017-10-23T10:12:56.283Z,10.66
2017-10-23T10:14:06.843Z,10.7
2017-10-23T10:15:17.336Z,10.65
2017-10-23T10:16:27.789Z,10.65
2017-10-23T10:17:38.270Z,10.69
2017-10-23T10:18:48.766Z,10.59
2017-10-23T10:19:59.342Z,10.58
2017-10-23T10:21:09.877Z,10.7
2017-10-23T10:22:20.332Z,10.59
2017-10-23T10:23:30.808Z,10.72
2017-10-23T10:24:41.311Z,10.69
2017-10-23T10:25:51.821Z,10.85
2017-10-23T10:27:02.277Z,10.8
2017-10-23T10:28:12.861Z,10.76
2017-10-23T10:29:23.353Z,10.76
2017-10-23T10:30:33.852Z,10.7
2017-10-23T10:31:44.382Z,10.73
2017-10-23T10:32:54.860Z,10.76
2017-10-23T10:34:05.540Z,10.73
2017-10-23T10:35:16.080Z,10.84
2017-10-23T10:36:26.594Z,10.88
2017-10-23T10:37:37.163Z,10.91
2017-10-23T10:38:47.729Z,11.06
2017-10-23T10:39:58.168Z,11.09
2017-10-23T10:41:08.977Z,11.09
2017-10-23T10:42:18.675Z,11.24
2017-10-23T10:43:29.260Z,11.27
2017-10-23T10:44:39.758Z,11.28
2017-10-23T10:45:50.313Z,11.39
2017-10-23T10:47:00.867Z,11.42
2017-10-23T10:48:11.426Z,11.45
2017-10-23T10:49:21.874Z,11.46
2017-10-23T10:50:32.373Z,11.46
2017-10-23T10:51:42.505Z,11.39
2017-10-23T10:52:52.988Z,11.64
2017-10-23T10:54:03.535Z,11.62
2017-10-23T10:55:13.321Z,11.68
2017-10-23T10:56:23.809Z,11.74
2017-10-23T10:57:34.326Z,11.89
2017-10-23T10:58:44.823Z,11.94
2017-10-23T10:59:55.276Z,12.13
2017-10-23T11:01:05.912Z,12.22
2017-10-23T11:02:16.403Z,12.29
2017-10-23T11:03:26.926Z,12.39
2017-10-23T11:04:37.408Z,12.42
2017-10-23T11:05:47.921Z,12.44
2017-10-23T11:06:58.385Z,12.42
2017-10-23T11:08:08.853Z,12.44
2017-10-23T11:09:19.381Z,12.35
2017-10-23T11:10:29.931Z,12.34
2017-10-23T11:11:40.401Z,12.23
2017-10-23T11:12:50.903Z,12.08
2017-10-23T11:14:01.399Z,12.05
2017-10-23T11:15:12.059Z,12.13
2017-10-23T11:16:22.514Z,12.05
2017-10-23T11:17:33.027Z,12.08
2017-10-23T11:18:43.629Z,12.01
2017-10-23T11:19:54.105Z,11.98
2017-10-23T11:21:04.568Z,12.07
2017-10-23T11:22:15.065Z,11.99
2017-10-23T11:23:25.557Z,12.01
2017-10-23T11:24:36.100Z,11.97
2017-10-23T11:25:46.141Z,12.02
2017-10-23T11:26:56.657Z,11.95
2017-10-23T11:28:07.098Z,12.01
2017-10-23T11:29:17.653Z,11.89
2017-10-23T11:30:28.189Z,11.8
2017-10-23T11:31:38.721Z,11.74
2017-10-23T11:32:49.339Z,11.72
2017-10-23T11:33:59.843Z,11.77
2017-10-23T11:35:10.296Z,11.82
2017-10-23T11:36:20.840Z,11.76
2017-10-23T11:37:31.310Z,11.68
2017-10-23T11:38:41.455Z,11.76
2017-10-23T11:39:52.193Z,11.69
2017-10-23T11:41:03.011Z,11.79
2017-10-23T11:42:13.176Z,11.74
2017-10-23T11:43:23.888Z,11.77
2017-10-23T11:44:34.376Z,11.77
2017-10-23T11:45:44.843Z,11.77
2017-10-23T11:46:55.324Z,11.79
2017-10-23T11:48:05.882Z,11.71
2017-10-23T11:49:16.186Z,11.66
2017-10-23T11:50:26.632Z,11.71
2017-10-23T11:51:37.170Z,11.62
2017-10-23T11:52:47.668Z,11.65
2017-10-23T11:53:58.244Z,11.71
2017-10-23T11:55:08.729Z,11.74
2017-10-23T11:56:19.208Z,11.79
2017-10-23T11:57:29.713Z,11.79
2017-10-23T11:58:40.179Z,11.82
2017-10-23T11:59:50.771Z,11.87
2017-10-23T12:01:01.249Z,11.9
2017-10-23T12:02:11.387Z,11.94
2017-10-23T12:03:21.959Z,12.01
2017-10-23T12:04:32.713Z,12.02
2017-10-23T12:05:42.882Z,12.05
2017-10-23T12:06:53.370Z,12.2
2017-10-23T12:08:03.529Z,12.13
2017-10-23T12:09:13.693Z,12.15
2017-10-23T12:10:24.157Z,12.01
2017-10-23T12:11:34.645Z,12.08
2017-10-23T12:12:45.135Z,12.17
2017-10-23T12:13:55.649Z,12.15
2017-10-23T12:15:06.147Z,12.23
2017-10-23T12:16:16.827Z,12.27
2017-10-23T12:17:27.312Z,12.11
2017-10-23T12:18:37.786Z,12.31
2017-10-23T12:19:48.336Z,12.32
2017-10-23T12:20:58.624Z,12.24
2017-10-23T12:22:09.089Z,12.23
2017-10-23T12:23:19.654Z,12.32
2017-10-23T12:24:30.221Z,12.34
2017-10-23T12:25:40.779Z,12.26
2017-10-23T12:26:51.255Z,12.31
2017-10-23T12:28:01.743Z,12.27
2017-10-23T12:29:11.940Z,12.31
2017-10-23T12:30:22.414Z,12.41
2017-10-23T12:31:32.877Z,12.39
2017-10-23T12:32:43.492Z,12.37
2017-10-23T12:33:54.054Z,12.52
2017-10-23T12:35:04.604Z,12.55
2017-10-23T12:36:15.274Z,12.57
2017-10-23T12:37:25.833Z,12.68
2017-10-23T12:38:36.274Z,12.7
2017-10-23T12:39:46.398Z,12.62
2017-10-23T12:40:56.883Z,12.63
2017-10-23T12:42:07.381Z,12.53
2017-10-23T12:43:18.008Z,12.48
2017-10-23T12:44:28.479Z,12.47
2017-10-23T12:45:39.069Z,12.35
2017-10-23T12:46:49.628Z,12.37
2017-10-23T12:48:00.125Z,12.23
2017-10-23T12:49:10.305Z,12.24
2017-10-23T12:50:20.878Z,12.19
2017-10-23T12:51:31.264Z,12.13
2017-10-23T12:52:42.006Z,12.23
2017-10-23T12:53:52.596Z,12.29
2017-10-23T12:55:03.096Z,12.15
2017-10-23T12:56:13.625Z,12.05
2017-10-23T12:57:24.244Z,12.11
2017-10-23T12:58:34.767Z,12.09
2017-10-23T12:59:45.453Z,12.11
2017-10-23T13:00:55.992Z,12.11
2017-10-23T13:02:06.460Z,12.02
2017-10-23T13:03:16.957Z,12.05
2017-10-23T13:04:27.533Z,12.02
2017-10-23T13:05:38.149Z,12.02
2017-10-23T13:06:48.597Z,11.99
2017-10-23T13:07:59.280Z,11.9
2017-10-23T13:09:09.791Z,11.89
2017-10-23T13:10:20.289Z,11.9
2017-10-23T13:11:30.543Z,11.95
2017-10-23T13:12:41.070Z,11.87
2017-10-23T13:13:51.680Z,11.89
2017-10-23T13:15:02.161Z,11.87
2017-10-23T13:16:12.391Z,11.84
2017-10-23T13:17:22.931Z,11.87
2017-10-23T13:18:33.109Z,11.76
2017-10-23T13:19:43.708Z,11.82
2017-10-23T13:20:54.216Z,11.83
2017-10-23T13:22:04.828Z,11.79
2017-10-23T13:23:15.333Z,11.74
2017-10-23T13:24:25.783Z,11.69
2017-10-23T13:25:36.440Z,11.61
2017-10-23T13:26:47.234Z,11.61
2017-10-23T13:27:57.782Z,11.62
2017-10-23T13:29:08.353Z,11.64
2017-10-23T13:30:18.890Z,11.61
2017-10-23T13:31:29.514Z,11.64
2017-10-23T13:32:40.031Z,11.58
2017-10-23T13:33:50.510Z,11.59
2017-10-23T13:35:01.146Z,11.49
2017-10-23T13:36:11.673Z,11.59
2017-10-23T13:37:22.104Z,11.66
2017-10-23T13:38:32.702Z,11.76
2017-10-23T13:39:43.219Z,11.86
2017-10-23T13:40:54.017Z,11.94
2017-10-23T13:42:04.525Z,12.09
2017-10-23T13:43:15.041Z,12.09
2017-10-23T13:44:25.651Z,12.16
2017-10-23T13:45:36.134Z,12.19
2017-10-23T13:46:46.602Z,12.23
2017-10-23T13:47:57.085Z,12.24
2017-10-23T13:49:07.710Z,12.24
2017-10-23T13:50:18.252Z,12.24
2017-10-23T13:51:28.763Z,12.35
2017-10-23T13:52:39.241Z,12.37
2017-10-23T13:53:49.428Z,12.35
2017-10-23T13:54:59.934Z,12.45
2017-10-23T13:56:10.442Z,12.52
2017-10-23T13:57:21.185Z,12.48
2017-10-23T13:58:31.730Z,12.48
2017-10-23T13:59:42.209Z,12.37
2017-10-23T14:00:52.789Z,12.37
2017-10-23T14:02:03.257Z,12.39
2017-10-23T14:03:13.507Z,12.26
2017-10-23T14:04:24.086Z,12.17
2017-10-23T14:05:34.615Z,12.13
2017-10-23T14:06:45.100Z,12.08
2017-10-23T14:07:55.698Z,12.01
2017-10-23T14:09:06.189Z,11.98
2017-10-23T14:10:16.678Z,12.02
2017-10-23T14:11:27.138Z,11.98
2017-10-23T14:12:37.655Z,11.9
2017-10-23T14:13:47.806Z,11.89
2017-10-23T14:14:58.650Z,11.84
2017-10-23T14:16:09.182Z,11.8
2017-10-23T14:17:19.737Z,11.83
2017-10-23T14:18:30.256Z,11.79
2017-10-23T14:19:40.777Z,11.76
2017-10-23T14:20:51.506Z,11.71
2017-10-23T14:22:02.044Z,11.74
2017-10-23T14:23:12.554Z,11.77
2017-10-23T14:24:23.109Z,11.74
2017-10-23T14:25:33.568Z,11.74
2017-10-23T14:26:44.117Z,11.82
2017-10-23T14:27:54.939Z,11.84
2017-10-23T14:29:05.144Z,11.8
2017-10-23T14:30:15.629Z,11.72
2017-10-23T14:31:26.202Z,11.82
2017-10-23T14:32:36.728Z,11.82
2017-10-23T14:33:47.193Z,11.65
2017-10-23T14:36:08.225Z,11.59
2017-10-23T14:37:18.702Z,11.59
2017-10-23T14:38:29.164Z,11.45
2017-10-23T14:39:39.773Z,11.52
2017-10-23T14:40:50.282Z,11.46
2017-10-23T14:42:00.793Z,11.4
2017-10-23T14:43:11.288Z,11.39
2017-10-23T14:44:21.779Z,11.35
2017-10-23T14:45:32.283Z,11.33
2017-10-23T14:46:42.759Z,11.3
2017-10-23T14:47:53.323Z,11.16
2017-10-23T14:49:03.801Z,11.17
2017-10-23T14:50:14.361Z,11.2
2017-10-23T14:51:24.896Z,11.23
2017-10-23T14:53:07.415Z,11.21
2017-10-23T14:54:17.999Z,11.15
2017-10-23T14:55:28.529Z,11.13
2017-10-23T14:56:38.675Z,11.09
2017-10-23T14:57:49.220Z,11.09
2017-10-23T14:58:59.679Z,11.1
2017-10-23T15:00:10.267Z,11.13
2017-10-23T15:01:20.772Z,11.13
2017-10-23T15:02:31.242Z,11.13
2017-10-23T15:03:41.716Z,11.13
2017-10-23T15:04:52.204Z,11.2
2017-10-23T15:06:02.860Z,11.17
2017-10-23T15:07:13.383Z,11.13
2017-10-23T15:08:23.985Z,11.16
2017-10-23T15:09:34.475Z,11.2
2017-10-23T15:10:44.970Z,11.13
2017-10-23T15:11:55.566Z,11.09
2017-10-23T15:13:06.275Z,11.12
2017-10-23T15:14:16.806Z,11.1
2017-10-23T15:15:27.529Z,11.1
2017-10-23T15:16:38.104Z,11
2017-10-23T15:17:48.613Z,10.98
2017-10-23T15:18:59.182Z,10.92
2017-10-23T15:20:09.820Z,11
2017-10-23T15:21:19.700Z,10.92
2017-10-23T15:22:30.236Z,10.87
2017-10-23T15:23:40.701Z,10.92
2017-10-23T15:24:51.353Z,10.91
2017-10-23T15:26:01.142Z,10.97
2017-10-23T15:27:11.670Z,10.88
2017-10-23T15:28:22.244Z,10.9
2017-10-23T15:29:32.733Z,10.91
2017-10-23T15:30:43.282Z,10.85
2017-10-23T15:31:53.776Z,10.84
2017-10-23T15:33:04.324Z,10.9
2017-10-23T15:34:14.843Z,10.87